Flight Track Log - Related Links

Times and Time Zones

All times are in EDT time to prevent confusion due to time zone crossing. See the SKW6534 flight status page for this flight to view local times or setup timezone preferences in your user account.

Time Position Orientation Groundspeed Altitude Reporting Facility
EDT Latitude Longitude Course Direction KTS MPH feet Rate Location/Type
Tue 03:48:22 PM 43.5681 -112.0203 35° Northeast 180 207 7,200  Level Salt Lake Center
Tue 03:49:23 PM 43.6267 -111.9550 39° Northeast 226 260 9,800 2,213 Climbing Salt Lake Center
Tue 03:50:00 PM 42.4903 -110.1806 124° Southeast  Level FlightAware Approximate
Tue 03:50:24 PM 43.6086 -111.8583 104° East 275 316 11,700  Level Salt Lake Center
Tue 03:51:00 PM 42.4306 -110.0785 129° Southeast  Level FlightAware Approximate
Tue 03:51:26 PM 43.5433 -111.7483 129° Southeast 324 373 14,100  Level Salt Lake Center
Tue 03:52:00 PM 42.3699 -109.9774 129° Southeast  Level FlightAware Approximate
Tue 03:52:27 PM 43.4875 -111.6519 129° Southeast 334 384 16,300  Level Salt Lake Center
Tue 03:53:29 PM 43.4286 -111.5525 129° Southeast 342 394 17,900 1,756 Climbing Salt Lake Center
Tue 03:54:30 PM 43.3539 -111.4303 130° Southeast 366 421 19,900 1,918 Climbing Salt Lake Center
Tue 03:55:31 PM 43.2919 -111.3258 129° Southeast 371 427 21,800 1,707 Climbing Salt Lake Center
Tue 03:56:33 PM 43.2217 -111.2036 128° Southeast 365 420 23,400 1,268 Climbing Salt Lake Center
Tue 03:57:34 PM 43.1572 -111.0961 129° Southeast 378 435 24,400 1,180 Climbing Salt Lake Center
Tue 03:58:35 PM 43.0819 -110.9686 129° Southeast 386 444 25,800 1,220 Climbing Salt Lake Center
Tue 03:59:37 PM 43.0161 -110.8631 130° Southeast 381 438 26,900 878 Climbing Salt Lake Center
Tue 04:00:38 PM 42.9506 -110.7556 130° Southeast 384 442 27,600 689 Climbing Salt Lake Center
Tue 04:01:39 PM 42.8731 -110.6286 130° Southeast 391 450 28,300 683 Climbing Salt Lake Center
Tue 04:02:41 PM 42.8008 -110.5122 130° Southeast 398 458 29,000 732 Climbing Salt Lake Center
Tue 04:03:42 PM 42.7331 -110.3997 129° Southeast 401 461 29,800 738 Climbing Salt Lake Center
Tue 04:04:43 PM 42.6525 -110.2697 130° Southeast 404 465 30,500 639 Climbing Salt Lake Center
Tue 04:05:44 PM 42.5831 -110.1581 130° Southeast 406 467 31,100 585 Climbing Salt Lake Center
Tue 04:06:46 PM 42.5131 -110.0456 130° Southeast 407 468 31,700 585 Climbing Salt Lake Center
Tue 04:07:47 PM 42.4314 -109.9128 130° Southeast 411 473 32,300 590 Climbing Salt Lake Center
Tue 04:08:48 PM 42.3589 -109.7994 131° Southeast 415 478 32,900 341 Climbing Salt Lake Center
Tue 04:09:50 PM 42.2750 -109.6656 130° Southeast 418 481 33,000 49 Climbing Salt Lake Center
Tue 04:10:51 PM 42.2008 -109.5486 131° Southeast 426 490 33,000  Level Salt Lake Center
Tue 04:11:52 PM 42.1247 -109.4267 130° Southeast 438 504 33,000  Level Salt Lake Center
Tue 04:12:53 PM 42.0344 -109.2853 131° Southeast 444 511 33,000  Level Salt Lake Center
Tue 04:13:55 PM 41.9564 -109.1622 130° Southeast 448 516 33,000  Level Salt Lake Center
Tue 04:14:56 PM 41.8778 -109.0394 131° Southeast 451 519 33,000  Level Salt Lake Center
Tue 04:15:57 PM 41.7858 -108.8967 131° Southeast 451 519 33,000  Level Salt Lake Center
Tue 04:16:59 PM 41.7075 -108.7761 131° Southeast 447 514 33,000  Level Salt Lake Center
Tue 04:18:00 PM 41.6294 -108.6547 131° Southeast 447 514 33,000  Level Salt Lake Center
Tue 04:19:01 PM 41.5375 -108.5128 131° Southeast 450 518 33,000  Level Salt Lake Center
Tue 04:20:02 PM 41.4578 -108.3919 131° Southeast 452 520 33,000  Level Salt Lake Center
Tue 04:21:04 PM 41.3817 -108.2294 122° Southeast 474 545 33,000  Level Salt Lake Center
Tue 04:22:05 PM 41.3267 -108.0731 115° Southeast 485 558 33,000  Level Salt Lake Center
Tue 04:23:06 PM 41.2719 -107.9183 115° Southeast 485 558 33,000  Level Salt Lake Center
Tue 04:23:55 PM 41.2264 -107.7897 115° Southeast 481 554 33,000  Level Denver Center
Tue 04:24:57 PM 41.1619 -107.6106 115° Southeast 481 554 33,000  Level Denver Center
Tue 04:25:58 PM 41.1075 -107.4583 115° Southeast 478 550 33,000 -98 Level Denver Center
Tue 04:27:00 PM 41.0431 -107.2789 115° Southeast 481 554 32,800 -488 Descending Denver Center
Tue 04:28:01 PM 40.9869 -107.1236 116° Southeast 486 559 32,000 -829 Descending Denver Center
Tue 04:29:03 PM 40.9217 -106.9447 116° Southeast 486 559 31,100 -532 Descending Denver Center
Tue 04:30:05 PM 40.8664 -106.7928 116° Southeast 481 554 30,900 -780 Descending Denver Center
Tue 04:31:06 PM 40.8111 -106.6439 116° Southeast 474 545 29,500 -1,220 Descending Denver Center
Tue 04:32:08 PM 40.7511 -106.4828 116° Southeast 480 552 28,400 -878 Descending Denver Center
Tue 04:33:09 PM 40.6853 -106.3067 116° Southeast 480 552 27,700 -537 Descending Denver Center
Tue 04:34:11 PM 40.6258 -106.1469 116° Southeast 464 534 27,300 -390 Descending Denver Center
Tue 04:35:12 PM 40.5697 -105.9950 116° Southeast 459 528 26,900 -780 Descending Denver Center
Tue 04:36:14 PM 40.5125 -105.8444 117° Southeast 457 526 25,700 -1,839 Descending Denver Center
Tue 04:37:16 PM 40.4575 -105.7025 117° Southeast 435 501 23,100 -2,439 Descending Denver Center
Tue 04:38:17 PM 40.4050 -105.5656 117° Southeast 421 484 20,700 -2,390 Descending Denver Center
Tue 04:39:19 PM 40.3578 -105.4422 117° Southeast 377 434 18,200 -2,390 Descending Denver Center
Tue 04:40:20 PM 40.3375 -105.3058 101° East 355 409 15,800 -1,867 Descending Denver Center
Tue 04:41:34 PM 40.3219 -105.1864 100° East 336 387 14,000 -1,721 Descending Denver Center
Tue 04:42:36 PM 40.3222 -105.0592 90° East 286 329 11,900 -1,463 Descending Denver Center
Tue 04:43:37 PM 40.3231 -104.9647 89° East 264 304 11,000 -585 Descending Denver Center
Tue 04:44:39 PM 40.3108 -104.8775 100° East 249 287 10,700 -683 Descending Denver Center
Tue 04:45:40 PM 40.2814 -104.7883 113° Southeast 246 283 9,600 -829 Descending Denver Center
Tue 04:46:42 PM 40.2339 -104.7339 139° Southeast 231 266 9,000 -293 Descending Denver Center
Tue 04:47:43 PM 40.1825 -104.6953 150° Southeast 215 247 9,000  Level Denver Center
Tue 04:48:45 PM 40.1225 -104.6844 172° South 202 232 9,000  Level Denver Center
Tue 04:49:47 PM 40.0761 -104.6850 181° South 172 198 9,000 -439 Level Denver Center
Tue 04:50:48 PM 40.0347 -104.6856 181° South 149 171 8,100 -732 Descending Denver Center
Tue 04:51:50 PM 40.0014 -104.6856 180° South 122 140 7,500 -683 Descending Denver Center
Tue 04:52:51 PM 39.9642 -104.6864 181° South 124 143 6,700 -732 Descending Denver Center
Tue 04:53:53 PM 39.9281 -104.6864 180° South 128 147 6,000 -634 Descending Denver Center
Tue 04:54:54 PM 39.8903 -104.6869 181° South 134 154 5,400 -590 Descending Denver Center

Login

Don't have an account? Register now (free) for customized features, flight alerts, and more!